This is the latest recevied weather packets stored in our database for station/object KC4JIR. If no packets are shown the sender has not sent any weather packets the latest 10 day(s).
| Time | Temp. | Humidity | Pressure | Rain* | Wind** | Luminosity | Snow |
|---|---|---|---|---|---|---|---|
| 1777336589 | 18.89° C | 64% | 1017.3 hPa | 0 mm | - | 0 W/m² | - |
| 1777336287 | 19.44° C | 61% | 1017.5 hPa | 0 mm | - | 0 W/m² | - |
| 1777335983 | 19.44° C | 62% | 1017.3 hPa | 0 mm | - | 0 W/m² | - |
| 1777335680 | 19.44° C | 62% | 1017.3 hPa | 0 mm | - | 0 W/m² | - |
| 1777335377 | 20° C | 61% | 1017.3 hPa | 0 mm | - | 0 W/m² | - |
| 1777335075 | 20° C | 61% | 1017.3 hPa | 0 mm | - | 0 W/m² | - |
| 1777334772 | 20.56° C | 60% | 1017.4 hPa | 0 mm | - | 3 W/m² | - |
| 1777334470 | 20.56° C | 61% | 1017.2 hPa | 0 mm | - | 4 W/m² | - |
| 1777334166 | 20.56° C | 59% | 1017 hPa | 0 mm | - | 6 W/m² | - |
| 1777333865 | 21.11° C | 60% | 1017.4 hPa | 0 mm | - | 8 W/m² | - |
| 1777333563 | 21.67° C | 58% | 1017.2 hPa | 0 mm | - | 12 W/m² | - |
| 1777333258 | 21.67° C | 56% | 1017.2 hPa | 0 mm | - | 15 W/m² | - |
| 1777332957 | 21.67° C | 56% | 1017.2 hPa | 0 mm | - | 15 W/m² | - |
| 1777332655 | 22.22° C | 56% | 1017 hPa | 0 mm | - | 16 W/m² | - |
| 1777332351 | 22.78° C | 54% | 1017 hPa | 0 mm | - | 20 W/m² | - |
| 1777331442 | 24.44° C | 46% | 1017 hPa | 0 mm | - | 29 W/m² | - |
| 1777331140 | 24.44° C | 46% | 1016.9 hPa | 0 mm | - | 29 W/m² | - |
| 1777330837 | 24.44° C | 46% | 1016.9 hPa | 0 mm | - | 29 W/m² | - |
| 1777330533 | 24.44° C | 47% | 1016.5 hPa | 0 mm | - | 30 W/m² | - |
| 1777329628 | 26.11° C | 46% | 1016.6 hPa | 0 mm | - | 177 W/m² | - |
| 1777329326 | 26.11° C | 46% | 1016.7 hPa | 0 mm | - | 177 W/m² | - |
| 1777328116 | 27.22° C | 41% | 1016.5 hPa | 0 mm | - | 204 W/m² | - |
| 1777327815 | 27.22° C | 41% | 1016.4 hPa | 0 mm | - | 204 W/m² | - |
| 1777327512 | 27.22° C | 42% | 1016.4 hPa | 0 mm | - | 195 W/m² | - |
| 1777327209 | 27.22° C | 40% | 1016.6 hPa | 0 mm | - | 295 W/m² | - |
* Rain latest hour (hover to see other rain measurements)
** Current wind speed in m/s (hover to see current wind gust speed)